Time;durP1;ratioP1;P1;durP2;ratioP2;P2;SDS_P1;SDS_P2;PMS_P1;PMS_P2;Temp;Humidity;BMP_temperature;BMP_pressure;BME280_temperature;BME280_humidity;BME280_pressure;Samples;Min_cycle;Max_cycle;Signal;HPM_P1;HPM_P2
2022/07/31 00:00:51;;;;;;;7.63;2.80;;;;;;;20.31;100.00;101747.41;5101443;28;20098;-68
2022/07/31 00:03:16;;;;;;;5.40;2.30;;;;;;;20.34;100.00;101736.69;5108951;28;20032;-68
2022/07/31 00:05:41;;;;;;;3.95;2.15;;;;;;;20.35;100.00;101722.44;5112900;28;20035;-69
2022/07/31 00:08:07;;;;;;;6.90;2.03;;;;;;;20.38;100.00;101722.38;5108937;28;20107;-68
2022/07/31 00:10:32;;;;;;;8.20;2.63;;;;;;;20.38;100.00;101733.09;5086769;28;20019;-68
2022/07/31 00:12:57;;;;;;;4.25;2.58;;;;;;;20.30;100.00;101738.50;5105638;28;20034;-68
2022/07/31 00:15:23;;;;;;;4.85;2.05;;;;;;;20.29;100.00;101722.47;5099448;28;20034;-68
2022/07/31 00:17:48;;;;;;;8.82;2.47;;;;;;;20.26;100.00;101717.16;5111434;28;20028;-68
2022/07/31 00:20:16;;;;;;;7.13;2.60;;;;;;;20.24;100.00;101713.63;5094332;28;20088;-69
2022/07/31 00:22:42;;;;;;;6.93;2.70;;;;;;;20.20;100.00;101719.00;5106966;28;20020;-68
2022/07/31 00:25:09;;;;;;;6.18;2.60;;;;;;;20.19;100.00;101711.00;5103850;28;20020;-68
2022/07/31 00:27:34;;;;;;;7.00;2.53;;;;;;;20.15;100.00;101710.13;5103824;28;20038;-68
2022/07/31 00:30:00;;;;;;;6.38;2.38;;;;;;;20.13;100.00;101711.94;5108451;28;20027;-68
2022/07/31 00:32:25;;;;;;;9.30;2.78;;;;;;;20.11;100.00;101708.38;5112239;28;20527;-68
2022/07/31 00:34:51;;;;;;;8.18;2.92;;;;;;;20.08;100.00;101711.09;5099045;28;20028;-68
2022/07/31 00:37:16;;;;;;;5.40;2.70;;;;;;;20.06;100.00;101715.56;5108091;28;20387;-68
2022/07/31 00:39:42;;;;;;;7.80;3.42;;;;;;;20.03;100.00;101705.78;5104455;28;20098;-69
2022/07/31 00:42:21;;;;;;;6.45;2.92;;;;;;;20.02;100.00;101700.44;5105448;28;20020;-68
2022/07/31 00:44:47;;;;;;;9.85;3.10;;;;;;;20.04;100.00;101704.00;5108864;28;20610;-69
2022/07/31 00:47:13;;;;;;;8.52;3.45;;;;;;;20.03;100.00;101705.78;5103675;28;20036;-67
2022/07/31 00:49:39;;;;;;;7.20;3.10;;;;;;;20.01;100.00;101709.38;5094658;28;20049;-68
2022/07/31 00:52:05;;;;;;;9.23;3.58;;;;;;;19.99;100.00;101696.03;5098833;28;20111;-69
2022/07/31 00:54:30;;;;;;;8.35;2.60;;;;;;;20.01;100.00;101696.03;5094827;28;20464;-69
2022/07/31 00:56:56;;;;;;;6.88;3.25;;;;;;;20.01;100.00;101688.00;5093927;28;20024;-69
2022/07/31 00:59:21;;;;;;;5.95;3.08;;;;;;;19.98;100.00;101686.25;5100959;28;20039;-69
2022/07/31 01:01:46;;;;;;;7.55;2.90;;;;;;;19.84;100.00;101681.00;5107194;28;20509;-68
2022/07/31 01:04:14;;;;;;;9.88;2.83;;;;;;;19.87;100.00;101681.00;5108570;28;20423;-68
2022/07/31 01:06:39;;;;;;;8.45;3.00;;;;;;;19.93;100.00;101677.38;5094994;28;20496;-68
2022/07/31 01:09:04;;;;;;;6.95;3.00;;;;;;;19.93;100.00;101677.38;5112364;28;20027;-69
2022/07/31 01:11:46;;;;;;;9.40;2.67;;;;;;;19.91;100.00;101679.19;5112141;28;20032;-68
2022/07/31 01:14:12;;;;;;;13.57;3.15;;;;;;;19.96;100.00;101668.47;5108250;28;20472;-69
2022/07/31 01:16:41;;;;;;;6.95;2.33;;;;;;;19.80;100.00;101678.34;5112009;28;20043;-68
2022/07/31 01:19:20;;;;;;;7.35;2.50;;;;;;;19.77;100.00;101681.94;5111277;28;20027;-69
2022/07/31 01:22:00;;;;;;;5.07;2.53;;;;;;;19.84;100.00;101686.34;5098814;28;20439;-68
2022/07/31 01:25:02;;;;;;;10.98;3.03;;;;;;;19.88;100.00;101689.91;5096557;28;20028;-66
2022/07/31 01:28:01;;;;;;;7.95;2.55;;;;;;;19.83;100.00;101681.94;5100090;28;20102;-67
2022/07/31 01:30:34;;;;;;;8.30;2.58;;;;;;;19.82;100.00;101677.47;5111796;28;20084;-68
2022/07/31 01:33:07;;;;;;;6.38;3.00;;;;;;;19.75;100.00;101678.41;5100745;28;20026;-67
2022/07/31 01:35:39;;;;;;;5.07;2.88;;;;;;;19.81;100.00;101685.50;5103366;28;20028;-68
2022/07/31 01:38:21;;;;;;;8.95;2.67;;;;;;;19.76;100.00;101680.16;5109077;28;20471;-67
2022/07/31 01:40:53;;;;;;;8.32;2.88;;;;;;;19.83;100.00;101673.91;5093896;28;20035;-67
2022/07/31 01:43:22;;;;;;;7.30;3.05;;;;;;;19.83;100.00;101671.25;5106334;28;20031;-68
2022/07/31 01:45:52;;;;;;;10.68;3.75;;;;;;;19.81;100.00;101673.03;5107601;28;20031;-68
2022/07/31 01:48:19;;;;;;;9.40;2.60;;;;;;;19.78;100.00;101656.09;5105866;28;20077;-69
2022/07/31 01:50:47;;;;;;;8.13;2.60;;;;;;;19.83;100.00;101659.66;5112793;28;20058;-69
2022/07/31 01:53:16;;;;;;;9.77;2.95;;;;;;;19.85;100.00;101663.22;5110459;28;20027;-69
2022/07/31 01:55:43;;;;;;;9.70;2.78;;;;;;;19.82;100.00;101669.47;5103683;28;20028;-69
2022/07/31 01:58:10;;;;;;;5.82;2.70;;;;;;;19.73;100.00;101664.16;5110980;28;20034;-69
2022/07/31 02:00:37;;;;;;;7.55;3.15;;;;;;;19.68;100.00;101655.31;5112418;28;20364;-69
2022/07/31 02:03:04;;;;;;;8.68;2.90;;;;;;;19.72;100.00;101651.72;5105591;28;20470;-67
2022/07/31 02:05:32;;;;;;;3.45;2.30;;;;;;;19.77;100.00;101649.91;5114988;28;20030;-68
2022/07/31 02:07:58;;;;;;;7.93;2.38;;;;;;;19.70;100.00;101653.53;5110258;28;20121;-69
2022/07/31 02:10:24;;;;;;;6.80;2.53;;;;;;;19.71;100.00;101648.16;5114198;28;20472;-69
2022/07/31 02:12:49;;;;;;;6.80;2.53;;;;;;;19.69;100.00;101639.25;5115403;28;20108;-69
2022/07/31 02:15:17;;;;;;;4.82;2.45;;;;;;;19.71;100.00;101636.63;5107021;28;20032;-69
2022/07/31 02:17:44;;;;;;;5.28;2.60;;;;;;;19.64;100.00;101632.19;5104966;28;20027;-68
2022/07/31 02:20:13;;;;;;;6.93;2.35;;;;;;;19.64;100.00;101632.19;5108087;28;20019;-68
2022/07/31 02:22:38;;;;;;;9.15;2.50;;;;;;;19.69;100.00;101635.72;5104657;28;20036;-69
2022/07/31 02:25:05;;;;;;;4.43;2.20;;;;;;;19.76;100.00;101626.75;5109530;28;20443;-68
2022/07/31 02:27:32;;;;;;;7.40;2.70;;;;;;;19.75;100.00;101635.69;5103317;28;20031;-68
2022/07/31 02:30:01;;;;;;;8.55;2.88;;;;;;;19.65;100.00;101629.50;5095487;28;20023;-69
2022/07/31 02:32:28;;;;;;;7.88;2.88;;;;;;;19.62;100.00;101626.88;5096927;28;20114;-69
2022/07/31 02:34:55;;;;;;;8.27;2.72;;;;;;;19.64;100.00;101613.50;5106995;28;20105;-68
2022/07/31 02:37:23;;;;;;;4.38;2.65;;;;;;;19.68;100.00;101617.94;5097365;28;20048;-68
2022/07/31 02:39:53;;;;;;;10.43;3.00;;;;;;;19.69;100.00;101609.91;5096012;28;20049;-68
2022/07/31 02:42:20;;;;;;;8.30;3.20;;;;;;;19.70;100.00;101613.47;5103894;28;20107;-68
2022/07/31 02:44:46;;;;;;;7.60;2.83;;;;;;;19.66;100.00;101620.63;5110735;28;20053;-68
2022/07/31 02:47:12;;;;;;;9.98;3.00;;;;;;;19.73;100.00;101621.44;5113980;28;20023;-69
2022/07/31 02:49:39;;;;;;;8.05;2.78;;;;;;;19.67;100.00;101626.84;5105077;28;20515;-67
2022/07/31 02:52:05;;;;;;;8.80;3.05;;;;;;;19.70;100.00;101624.16;5103182;28;20032;-68
2022/07/31 02:54:32;;;;;;;8.25;2.90;;;;;;;19.53;100.00;101625.19;5101209;28;20024;-68
2022/07/31 02:56:58;;;;;;;7.13;2.92;;;;;;;19.65;100.00;101617.97;5096069;28;20028;-69
2022/07/31 02:59:23;;;;;;;7.82;2.90;;;;;;;19.63;100.00;101622.41;5112410;28;20047;-69
2022/07/31 03:01:48;;;;;;;16.15;3.03;;;;;;;19.68;100.00;101613.50;5085764;28;20024;-69
2022/07/31 03:04:14;;;;;;;8.30;3.10;;;;;;;19.63;100.00;101617.06;5085125;28;20043;-68
2022/07/31 03:06:40;;;;;;;5.50;2.55;;;;;;;19.54;100.00;101616.25;5103188;28;20020;-68
2022/07/31 03:09:05;;;;;;;7.25;2.92;;;;;;;19.54;100.00;101607.38;5108213;28;20049;-67
2022/07/31 03:11:31;;;;;;;7.20;3.05;;;;;;;19.58;100.00;101595.75;5104152;28;20400;-68
2022/07/31 03:13:59;;;;;;;8.60;2.63;;;;;;;19.57;100.00;101593.13;5114075;28;20391;-68
2022/07/31 03:16:26;;;;;;;7.07;3.17;;;;;;;19.57;100.00;101591.31;5112957;28;20057;-68
2022/07/31 03:18:53;;;;;;;8.45;2.85;;;;;;;19.55;100.00;101591.34;5085259;28;20020;-68
2022/07/31 03:21:20;;;;;;;6.70;3.17;;;;;;;19.53;100.00;101598.50;5096938;28;20435;-68
2022/07/31 03:23:46;;;;;;;7.22;2.97;;;;;;;19.53;100.00;101598.50;5106414;28;20051;-69
2022/07/31 03:26:13;;;;;;;7.15;3.03;;;;;;;19.51;100.00;101602.06;5097229;28;20031;-68
2022/07/31 03:28:39;;;;;;;5.30;3.17;;;;;;;19.42;100.00;101605.69;5097408;28;20494;-67
2022/07/31 03:31:06;;;;;;;8.43;2.83;;;;;;;19.50;100.00;101598.50;5111110;28;20023;-68
2022/07/31 03:33:32;;;;;;;6.65;3.40;;;;;;;19.52;100.00;101604.72;5099146;28;20028;-67
2022/07/31 03:35:58;;;;;;;5.05;3.65;;;;;;;19.49;100.00;101602.09;5099974;28;20024;-68
2022/07/31 03:38:23;;;;;;;4.55;2.95;;;;;;;19.36;100.00;101600.41;5104710;28;20020;-68
2022/07/31 03:40:49;;;;;;;5.22;3.97;;;;;;;19.42;100.00;101599.47;5095918;28;20035;-69
2022/07/31 03:43:16;;;;;;;8.57;3.45;;;;;;;19.47;100.00;101603.00;5113299;28;20095;-70
2022/07/31 03:45:43;;;;;;;6.47;3.58;;;;;;;19.52;100.00;101591.38;5096377;28;20036;-69
2022/07/31 03:48:09;;;;;;;5.75;3.75;;;;;;;19.44;100.00;101598.56;5105993;28;20112;-69
2022/07/31 03:50:36;;;;;;;7.47;3.78;;;;;;;19.39;100.00;101597.72;5091258;28;20046;-69
2022/07/31 03:53:03;;;;;;;7.90;3.88;;;;;;;19.41;100.00;101597.69;5107533;28;20429;-69
2022/07/31 03:55:30;;;;;;;10.75;4.07;;;;;;;19.34;100.00;101588.84;5104821;28;20035;-68
2022/07/31 03:57:57;;;;;;;9.68;4.65;;;;;;;19.33;100.00;101590.66;5110745;28;20098;-68
2022/07/31 04:00:26;;;;;;;10.70;5.38;;;;;;;19.31;100.00;101586.22;5106125;28;20071;-69
2022/07/31 04:02:56;;;;;;;9.98;4.60;;;;;;;19.21;100.00;101575.59;5107614;28;20067;-68
2022/07/31 04:05:22;;;;;;;9.35;5.10;;;;;;;19.16;100.00;101577.41;5109841;28;20038;-68
2022/07/31 04:07:48;;;;;;;7.80;5.43;;;;;;;19.09;100.00;101581.03;5099082;28;20103;-68
2022/07/31 04:10:14;;;;;;;8.75;6.43;;;;;;;19.15;100.00;101591.69;5097354;28;20057;-68
2022/07/31 04:12:39;;;;;;;9.57;5.55;;;;;;;19.17;100.00;101586.31;5079290;28;20141;-68
2022/07/31 04:15:05;;;;;;;10.90;6.43;;;;;;;19.19;100.00;101580.09;5113535;28;20023;-67
2022/07/31 04:17:30;;;;;;;16.98;7.30;;;;;;;19.14;100.00;101573.88;5101052;28;20028;-68
2022/07/31 04:19:56;;;;;;;12.70;7.22;;;;;;;19.10;100.00;101580.16;5093709;28;20069;-68
2022/07/31 04:22:21;;;;;;;13.27;7.22;;;;;;;19.14;100.00;101578.31;5099889;28;20084;-69
2022/07/31 04:24:47;;;;;;;13.25;7.47;;;;;;;19.13;100.00;101580.13;5108386;28;20027;-69
2022/07/31 04:27:16;;;;;;;14.80;7.60;;;;;;;19.10;100.00;101577.47;5109396;28;20027;-69
2022/07/31 04:29:43;;;;;;;16.08;7.75;;;;;;;19.16;100.00;101577.41;5106414;28;20024;-69
2022/07/31 04:32:08;;;;;;;14.90;7.90;;;;;;;19.25;100.00;101572.91;5105677;28;20103;-68
2022/07/31 04:34:33;;;;;;;14.77;8.13;;;;;;;19.23;100.00;101572.03;5112805;28;20444;-67
2022/07/31 04:36:59;;;;;;;12.55;8.25;;;;;;;19.15;100.00;101573.00;5109154;28;20495;-68
2022/07/31 04:39:24;;;;;;;13.07;7.25;;;;;;;19.18;100.00;101575.63;5101909;28;20119;-69
2022/07/31 04:41:49;;;;;;;16.23;8.63;;;;;;;19.09;100.00;101572.16;5106966;28;20031;-68
2022/07/31 04:44:15;;;;;;;15.25;7.85;;;;;;;19.16;100.00;101577.41;5098059;28;20028;-68
2022/07/31 04:46:42;;;;;;;13.32;7.80;;;;;;;19.19;100.00;101576.50;5112552;28;20019;-68
2022/07/31 04:49:11;;;;;;;21.25;9.05;;;;;;;19.23;100.00;101574.72;5111308;28;20047;-68
2022/07/31 04:51:37;;;;;;;16.58;8.77;;;;;;;19.19;100.00;101572.09;5079071;28;20497;-67
2022/07/31 04:54:03;;;;;;;15.75;8.27;;;;;;;19.20;100.00;101565.81;5108534;28;20024;-68
2022/07/31 04:56:40;;;;;;;14.10;8.50;;;;;;;19.21;100.00;101559.59;5104926;28;20106;-68
2022/07/31 04:59:11;;;;;;;16.55;9.02;;;;;;;19.19;100.00;101565.84;5090651;28;20067;-68
2022/07/31 05:01:37;;;;;;;14.80;8.00;;;;;;;19.19;100.00;101573.84;5107766;28;20043;-68
2022/07/31 05:04:03;;;;;;;17.70;9.32;;;;;;;19.16;100.00;101564.06;5093182;28;20020;-68
2022/07/31 05:06:58;;;;;;;16.52;8.63;;;;;;;19.19;100.00;101564.06;5104209;28;20031;-68
2022/07/31 05:09:23;;;;;;;16.13;8.95;;;;;;;19.25;100.00;101564.91;5091018;28;20499;-67
2022/07/31 05:11:49;;;;;;;19.27;9.77;;;;;;;19.18;100.00;101559.63;5093058;28;20059;-67
2022/07/31 05:14:17;;;;;;;23.50;10.77;;;;;;;19.24;100.00;101568.50;5104276;28;20069;-69
2022/07/31 05:16:42;;;;;;;21.63;10.07;;;;;;;19.27;100.00;101560.44;5097736;28;20028;-68
2022/07/31 05:19:08;;;;;;;21.45;10.73;;;;;;;19.32;100.00;101563.97;5095704;28;20548;-68
2022/07/31 05:21:33;;;;;;;22.50;11.05;;;;;;;19.41;100.00;101563.00;5112176;28;20031;-69
2022/07/31 05:23:59;;;;;;;19.27;9.98;;;;;;;19.42;100.00;101562.97;5115954;28;20023;-69
2022/07/31 05:26:25;;;;;;;21.40;11.45;;;;;;;19.33;100.00;101563.97;5098081;28;20481;-69
2022/07/31 05:28:52;;;;;;;22.80;10.80;;;;;;;19.34;100.00;101562.16;5097762;28;20107;-69
2022/07/31 05:31:19;;;;;;;22.05;11.18;;;;;;;19.36;100.00;101555.91;5096667;28;20055;-69
2022/07/31 05:33:46;;;;;;;22.65;10.73;;;;;;;19.34;100.00;101554.16;5096856;28;20110;-67
2022/07/31 05:36:12;;;;;;;20.25;10.82;;;;;;;19.40;100.00;101554.13;5105133;28;20040;-67
2022/07/31 05:38:38;;;;;;;24.52;11.77;;;;;;;19.44;100.00;101562.97;5106825;28;20072;-68
2022/07/31 05:41:03;;;;;;;23.52;11.52;;;;;;;19.40;100.00;101548.78;5115557;28;20027;-68
2022/07/31 05:43:28;;;;;;;26.25;12.45;;;;;;;19.46;100.00;101554.03;5106618;28;20544;-68
2022/07/31 05:45:54;;;;;;;22.50;11.15;;;;;;;19.49;100.00;101553.13;5091017;28;20031;-68
2022/07/31 05:48:20;;;;;;;25.10;12.18;;;;;;;19.57;100.00;101551.28;5115107;28;20077;-68
2022/07/31 05:50:47;;;;;;;27.58;12.50;;;;;;;19.43;100.00;101537.19;5102131;28;20032;-68
2022/07/31 05:53:14;;;;;;;27.75;11.77;;;;;;;19.48;100.00;101544.25;5097467;28;20028;-68
2022/07/31 05:55:43;;;;;;;25.75;11.73;;;;;;;19.52;100.00;101537.97;5109426;28;20395;-67
2022/07/31 05:58:09;;;;;;;25.85;12.63;;;;;;;19.46;100.00;101535.34;5097155;28;20028;-69
2022/07/31 06:00:35;;;;;;;23.63;12.88;;;;;;;19.50;100.00;101537.09;5099440;28;20043;-69
2022/07/31 06:03:01;;;;;;;24.85;11.48;;;;;;;19.57;100.00;101537.06;5108381;28;20049;-69
2022/07/31 06:05:28;;;;;;;37.17;12.70;;;;;;;19.57;100.00;101540.59;5111486;28;21217;-68
2022/07/31 06:07:53;;;;;;;24.10;12.63;;;;;;;19.58;100.00;101537.03;5104619;28;20098;-68
2022/07/31 06:10:19;;;;;;;24.38;12.57;;;;;;;19.47;100.00;101539.81;5115151;28;20418;-69
2022/07/31 06:12:45;;;;;;;29.55;13.20;;;;;;;19.53;100.00;101552.19;5112164;28;20031;-68
2022/07/31 06:15:10;;;;;;;29.58;13.30;;;;;;;19.52;100.00;101554.00;5099534;28;20486;-68
2022/07/31 06:17:39;;;;;;;24.02;12.88;;;;;;;19.64;100.00;101550.34;5110005;28;20509;-67
2022/07/31 06:20:06;;;;;;;26.55;13.68;;;;;;;19.58;100.00;101554.84;5114888;28;20083;-68
2022/07/31 06:22:31;;;;;;;27.63;13.32;;;;;;;19.68;100.00;101559.19;5106725;28;20421;-69
2022/07/31 06:24:56;;;;;;;30.25;14.32;;;;;;;19.50;100.00;101552.25;5102861;28;20019;-68
2022/07/31 06:27:22;;;;;;;25.80;13.68;;;;;;;19.53;100.00;101553.09;5105578;28;20028;-68
2022/07/31 06:29:47;;;;;;;26.58;13.55;;;;;;;19.60;100.00;101553.94;5077890;28;20020;-67
2022/07/31 06:32:13;;;;;;;31.00;14.48;;;;;;;19.55;100.00;101540.63;5097100;28;20074;-68
2022/07/31 06:34:39;;;;;;;29.30;15.27;;;;;;;19.63;100.00;101543.22;5102776;28;20027;-69
2022/07/31 06:37:05;;;;;;;24.15;14.45;;;;;;;19.65;100.00;101548.53;5110880;28;20031;-68
2022/07/31 06:39:30;;;;;;;30.80;16.45;;;;;;;19.66;100.00;101553.84;5115714;28;20054;-69
2022/07/31 06:41:55;;;;;;;35.03;16.77;;;;;;;19.62;100.00;101548.56;5110798;28;20068;-68
2022/07/31 06:44:21;;;;;;;36.85;16.83;;;;;;;19.68;100.00;101545.81;5099030;28;20028;-68
2022/07/31 06:46:47;;;;;;;27.17;16.05;;;;;;;19.61;100.00;101547.69;5097087;28;20031;-69
2022/07/31 06:49:12;;;;;;;37.53;17.77;;;;;;;19.64;100.00;101541.41;5096540;28;20028;-68
2022/07/31 06:51:38;;;;;;;29.65;18.15;;;;;;;19.65;100.00;101537.84;5095023;28;20080;-69
2022/07/31 06:54:05;;;;;;;32.45;17.77;;;;;;;19.74;100.00;101545.78;5111922;28;20027;-68
2022/07/31 06:56:32;;;;;;;35.17;16.42;;;;;;;19.80;100.00;101543.06;5095452;28;20024;-68
2022/07/31 06:58:57;;;;;;;26.70;16.65;;;;;;;19.88;100.00;101541.19;5100576;28;20030;-68
2022/07/31 07:01:23;;;;;;;33.95;18.70;;;;;;;19.92;100.00;101544.72;5096172;28;20475;-69
2022/07/31 07:03:48;;;;;;;32.17;17.77;;;;;;;19.92;100.00;101543.84;5109634;28;20028;-68
2022/07/31 07:06:14;;;;;;;31.85;17.55;;;;;;;19.88;100.00;101551.00;5109257;28;20722;-68
2022/07/31 07:08:39;;;;;;;28.60;16.38;;;;;;;19.87;100.00;101552.81;5104840;28;20035;-68
2022/07/31 07:11:05;;;;;;;26.73;16.10;;;;;;;19.92;100.00;101554.53;5109365;28;20026;-70
2022/07/31 07:13:30;;;;;;;29.33;17.08;;;;;;;19.87;100.00;101550.13;5094610;28;20078;-67
2022/07/31 07:15:56;;;;;;;34.60;16.77;;;;;;;19.78;100.00;101544.84;5097804;28;20360;-68
2022/07/31 07:18:21;;;;;;;29.00;17.65;;;;;;;19.84;100.00;101544.78;5098892;28;20035;-71
2022/07/31 07:20:50;;;;;;;30.95;18.42;;;;;;;19.85;100.00;101546.56;5077254;28;20020;-71
2022/07/31 07:23:17;;;;;;;39.88;18.40;;;;;;;19.82;100.00;101535.94;5110696;28;20032;-72
2022/07/31 07:25:43;;;;;;;30.88;17.67;;;;;;;19.75;100.00;101531.53;5102350;28;20062;-72
2022/07/31 07:28:08;;;;;;;29.35;17.58;;;;;;;19.69;100.00;101539.59;5099644;28;20032;-72
2022/07/31 07:30:34;;;;;;;33.75;19.63;;;;;;;19.58;100.00;101541.50;5108862;28;20059;-72
2022/07/31 07:32:59;;;;;;;34.38;20.15;;;;;;;19.57;100.00;101537.94;5101353;28;20036;-72
2022/07/31 07:35:25;;;;;;;37.60;22.85;;;;;;;19.51;100.00;101532.66;5110370;28;20023;-71
2022/07/31 07:37:51;;;;;;;31.65;21.60;;;;;;;19.48;100.00;101536.25;5100882;28;20080;-72
2022/07/31 07:40:16;;;;;;;35.20;22.80;;;;;;;19.45;100.00;101533.63;5095270;28;20028;-71
2022/07/31 07:42:42;;;;;;;40.55;23.23;;;;;;;19.39;100.00;101525.66;5094584;28;20028;-71
2022/07/31 07:45:09;;;;;;;37.92;23.75;;;;;;;19.40;100.00;101532.75;5093798;28;20024;-71
2022/07/31 07:47:35;;;;;;;42.25;24.17;;;;;;;19.42;100.00;101525.59;5094019;28;20034;-72
2022/07/31 07:50:00;;;;;;;40.63;23.45;;;;;;;19.50;100.00;101530.88;5107288;28;20027;-72
2022/07/31 07:52:25;;;;;;;34.92;23.02;;;;;;;19.50;100.00;101523.75;5108928;28;20028;-72
2022/07/31 07:54:51;;;;;;;37.08;22.02;;;;;;;19.54;100.00;101532.63;5084789;28;20050;-73
2022/07/31 07:57:18;;;;;;;38.22;24.10;;;;;;;19.53;100.00;101534.41;5097632;28;20068;-71
2022/07/31 07:59:43;;;;;;;35.22;21.77;;;;;;;19.49;100.00;101532.69;5113225;28;20043;-72
2022/07/31 08:02:09;;;;;;;35.75;22.60;;;;;;;19.59;100.00;101533.47;5107436;28;20124;-71
2022/07/31 08:04:34;;;;;;;32.20;22.42;;;;;;;19.53;100.00;101531.75;5093823;28;20062;-71
2022/07/31 08:07:00;;;;;;;32.20;20.27;;;;;;;19.49;100.00;101532.69;5094407;28;20398;-71
2022/07/31 08:09:25;;;;;;;31.73;21.58;;;;;;;19.52;100.00;101526.41;5087952;28;20032;-71
2022/07/31 08:11:50;;;;;;;30.88;20.67;;;;;;;19.58;100.00;101522.81;5108507;28;20024;-71
2022/07/31 08:14:16;;;;;;;38.85;20.48;;;;;;;19.61;100.00;101526.31;5109584;28;20019;-71
2022/07/31 08:16:41;;;;;;;30.83;20.45;;;;;;;19.63;100.00;101524.53;5086715;28;20475;-71
2022/07/31 08:19:07;;;;;;;28.60;17.80;;;;;;;19.70;100.00;101522.69;5102369;28;20031;-70
2022/07/31 08:21:36;;;;;;;32.85;19.67;;;;;;;19.64;100.00;101517.41;5099435;28;20031;-72
2022/07/31 08:24:02;;;;;;;33.45;20.13;;;;;;;19.75;100.00;101520.84;5099458;28;20027;-72
2022/07/31 08:27:22;;;;;;;27.23;16.90;;;;;;;19.85;100.00;101509.19;5090104;28;20012;-71
2022/07/31 08:29:12;;;;;;;32.40;18.88;;;;;;;19.92;100.00;101514.47;5094542;28;20115;-73
2022/07/31 08:31:37;;;;;;;25.05;17.98;;;;;;;19.92;100.00;101514.47;5098813;28;20019;-72
2022/07/31 08:34:03;;;;;;;33.45;18.80;;;;;;;19.94;100.00;101518.00;5111521;28;20066;-70
2022/07/31 08:36:29;;;;;;;32.30;19.05;;;;;;;19.88;100.00;101517.16;5093916;28;20028;-72
2022/07/31 08:38:54;;;;;;;25.65;16.52;;;;;;;19.92;100.00;101525.16;5102351;28;20024;-71
2022/07/31 08:41:19;;;;;;;29.38;18.38;;;;;;;19.95;100.00;101530.44;5106662;28;20372;-71
2022/07/31 08:43:45;;;;;;;32.63;17.27;;;;;;;19.94;100.00;101523.34;5078676;28;20497;-73
2022/07/31 08:46:11;;;;;;;24.73;16.27;;;;;;;19.90;100.00;101526.94;5109324;28;20063;-73
2022/07/31 08:48:40;;;;;;;24.90;16.58;;;;;;;20.01;100.00;101527.72;5103190;28;20068;-70
2022/07/31 08:51:09;;;;;;;28.80;16.55;;;;;;;19.98;100.00;101530.41;5083201;28;20023;-72
2022/07/31 08:53:37;;;;;;;26.88;16.77;;;;;;;19.83;100.00;101521.69;5109831;28;20031;-71
2022/07/31 08:56:04;;;;;;;26.23;16.83;;;;;;;19.93;100.00;101526.94;5113628;28;20027;-71
2022/07/31 08:58:30;;;;;;;27.05;18.15;;;;;;;19.91;100.00;101528.72;5111452;28;20020;-71
2022/07/31 09:00:55;;;;;;;24.95;16.67;;;;;;;19.92;100.00;101533.16;5099524;28;20116;-71
2022/07/31 09:03:21;;;;;;;30.23;18.50;;;;;;;19.87;100.00;101528.75;5066856;28;20043;-72
2022/07/31 09:05:46;;;;;;;25.42;18.42;;;;;;;19.86;100.00;101528.78;5097816;28;20020;-70
2022/07/31 09:08:11;;;;;;;31.75;19.20;;;;;;;19.83;100.00;101524.34;5112164;28;20479;-70
2022/07/31 09:10:37;;;;;;;30.15;19.45;;;;;;;19.87;100.00;101527.84;5089202;28;20383;-70
2022/07/31 09:13:12;;;;;;;31.85;21.17;;;;;;;19.87;100.00;101522.50;5098768;28;20019;-72
2022/07/31 09:15:38;;;;;;;34.38;21.73;;;;;;;19.91;100.00;101523.38;5108230;28;20065;-70
2022/07/31 09:18:14;;;;;;;35.92;22.88;;;;;;;19.90;100.00;101519.84;5115048;28;20471;-71
2022/07/31 09:20:40;;;;;;;38.20;24.73;;;;;;;19.76;100.00;101513.72;5114964;28;20092;-71
2022/07/31 09:23:09;;;;;;;36.95;23.83;;;;;;;19.84;100.00;101515.41;5114152;28;20027;-72
2022/07/31 09:25:35;;;;;;;37.60;25.67;;;;;;;19.84;100.00;101510.06;5108701;28;20030;-72
2022/07/31 09:28:02;;;;;;;40.92;25.38;;;;;;;19.84;100.00;101518.09;5096952;28;20098;-72
2022/07/31 09:30:28;;;;;;;43.28;24.77;;;;;;;19.84;100.00;101512.75;5093156;28;20032;-71
2022/07/31 09:32:53;;;;;;;36.63;25.13;;;;;;;19.82;100.00;101514.56;5097406;28;20022;-72
2022/07/31 09:35:19;;;;;;;39.95;24.70;;;;;;;19.86;100.00;101518.09;5117068;28;20051;-72
2022/07/31 09:37:47;;;;;;;39.45;25.65;;;;;;;19.82;100.00;101508.34;5116798;28;20081;-72
2022/07/31 09:40:13;;;;;;;38.10;24.38;;;;;;;19.73;100.00;101511.09;5117119;28;20035;-73
2022/07/31 09:42:44;;;;;;;33.92;23.35;;;;;;;19.77;100.00;101516.38;5113245;28;20035;-72
2022/07/31 09:45:20;;;;;;;35.88;23.73;;;;;;;19.72;100.00;101518.19;5108006;28;20027;-74
2022/07/31 09:47:46;;;;;;;35.70;23.90;;;;;;;19.72;100.00;101523.53;5097872;28;20475;-72
2022/07/31 09:50:11;;;;;;;32.13;24.13;;;;;;;19.75;100.00;101518.19;5105791;28;20026;-72
2022/07/31 09:52:37;;;;;;;36.20;24.55;;;;;;;19.67;100.00;101512.03;5110826;28;20059;-71
2022/07/31 09:55:11;;;;;;;37.47;24.75;;;;;;;19.67;100.00;101515.59;5112027;28;20019;-72
2022/07/31 09:57:38;;;;;;;30.80;22.77;;;;;;;19.72;100.00;101507.50;5106074;28;20110;-70
2022/07/31 10:00:06;;;;;;;31.90;23.02;;;;;;;19.80;100.00;101515.44;5116483;28;20051;-72
2022/07/31 10:02:34;;;;;;;27.20;21.30;;;;;;;19.75;100.00;101518.19;5087615;28;20054;-71
2022/07/31 10:04:59;;;;;;;32.42;22.20;;;;;;;19.74;100.00;101518.16;5096930;28;20536;-71
2022/07/31 10:07:28;;;;;;;31.02;20.25;;;;;;;19.72;100.00;101510.19;5104122;28;20023;-72
2022/07/31 10:09:56;;;;;;;25.85;19.17;;;;;;;19.71;100.00;101516.44;5111569;28;20797;-70
2022/07/31 10:12:22;;;;;;;29.15;17.92;;;;;;;19.75;100.00;101522.63;5088293;28;20032;-71
2022/07/31 10:14:52;;;;;;;28.02;16.77;;;;;;;19.76;100.00;101527.94;5110188;28;20448;-70
2022/07/31 10:17:31;;;;;;;23.83;14.70;;;;;;;19.73;100.00;101514.63;5104877;28;20023;-71
2022/07/31 10:20:03;;;;;;;21.90;14.05;;;;;;;19.78;100.00;101519.91;5112002;28;21659;-72
2022/07/31 10:22:37;;;;;;;22.35;13.32;;;;;;;19.79;100.00;101511.91;5104503;28;20024;-72
2022/07/31 10:25:04;;;;;;;23.10;12.90;;;;;;;19.83;100.00;101511.00;5103615;28;20074;-71
2022/07/31 10:27:30;;;;;;;25.48;12.13;;;;;;;19.82;100.00;101514.56;5104670;28;20475;-70
2022/07/31 10:29:55;;;;;;;24.98;9.70;;;;;;;19.88;100.00;101509.13;5106048;28;20039;-71
2022/07/31 10:32:21;;;;;;;14.38;8.75;;;;;;;19.83;100.00;101510.09;5103844;28;20032;-70
2022/07/31 10:34:46;;;;;;;17.17;8.98;;;;;;;19.92;100.00;101512.66;5103516;28;20423;-71
2022/07/31 10:37:19;;;;;;;18.58;8.23;;;;;;;19.95;100.00;101519.78;5102942;28;20539;-71
2022/07/31 10:39:48;;;;;;;17.77;7.65;;;;;;;19.87;100.00;101515.41;5104341;28;20118;-72
2022/07/31 10:42:38;;;;;;;14.57;6.25;;;;;;;19.83;100.00;101505.66;5094886;28;20360;-72
2022/07/31 10:45:05;;;;;;;10.57;5.38;;;;;;;19.82;100.00;101509.22;5097366;28;20122;-71
2022/07/31 10:47:31;;;;;;;11.88;5.10;;;;;;;19.87;100.00;101507.41;5096350;28;20108;-72
2022/07/31 10:49:56;;;;;;;15.40;5.07;;;;;;;19.77;100.00;101503.00;5095361;28;20039;-72
2022/07/31 10:52:28;;;;;;;14.50;4.90;;;;;;;19.81;100.00;101507.44;5096220;28;20050;-72
2022/07/31 10:54:57;;;;;;;10.27;4.75;;;;;;;19.97;100.00;101501.94;5099078;28;20464;-71
2022/07/31 10:57:34;;;;;;;12.68;4.72;;;;;;;20.08;100.00;101499.16;5100096;28;20130;-71
2022/07/31 11:00:16;;;;;;;14.35;4.40;;;;;;;20.14;100.00;101494.56;5105776;28;20083;-71
2022/07/31 11:02:42;;;;;;;12.23;4.53;;;;;;;20.26;100.00;101498.03;5106698;28;20099;-71
2022/07/31 11:05:12;;;;;;;9.32;4.38;;;;;;;20.15;100.00;101504.38;5105877;28;20065;-71
2022/07/31 11:07:38;;;;;;;13.25;4.80;;;;;;;20.18;100.00;101503.44;5096164;28;20054;-71
2022/07/31 11:10:12;;;;;;;11.13;4.63;;;;;;;20.13;100.00;101489.25;5100357;28;20031;-71